Time;durP1;ratioP1;P1;durP2;ratioP2;P2;SDS_P1;SDS_P2;PMS_P1;PMS_P2;Temp;Humidity;BMP_temperature;BMP_pressure;BME280_temperature;BME280_humidity;BME280_pressure;Samples;Min_cycle;Max_cycle;Signal;HPM_P1;HPM_P2
2023/01/06 00:01:25;;;;;;;20.17;9.23;;;;;;;;;;4979793;28;20967;-68
2023/01/06 00:03:52;;;;;;;23.90;8.77;;;;;;;;;;4992276;28;20196;-69
2023/01/06 00:06:18;;;;;;;15.48;8.50;;;;;;;;;;4997952;28;20183;-69
2023/01/06 00:08:44;;;;;;;18.98;8.55;;;;;;;;;;4998313;28;20201;-69
2023/01/06 00:11:12;;;;;;;16.00;7.53;;;;;;;;;;4994286;28;20195;-68
2023/01/06 00:13:38;;;;;;;18.55;7.65;;;;;;;;;;4996671;28;20654;-68
2023/01/06 00:16:09;;;;;;;17.75;6.90;;;;;;;;;;4997757;28;20183;-68
2023/01/06 00:18:35;;;;;;;16.27;7.05;;;;;;;;;;4997019;28;20667;-68
2023/01/06 00:21:01;;;;;;;20.15;6.80;;;;;;;;;;5006150;28;20272;-68
2023/01/06 00:23:27;;;;;;;13.55;6.82;;;;;;;;;;4997621;28;20234;-68
2023/01/06 00:25:52;;;;;;;14.55;6.47;;;;;;;;;;4996829;28;20202;-68
2023/01/06 00:28:18;;;;;;;11.70;5.47;;;;;;;;;;4996631;28;20568;-69
2023/01/06 00:30:43;;;;;;;10.20;5.47;;;;;;;;;;4998364;28;20202;-68
2023/01/06 00:33:09;;;;;;;15.02;5.78;;;;;;;;;;4998014;28;20191;-68
2023/01/06 00:35:34;;;;;;;11.30;5.00;;;;;;;;;;4998738;28;20221;-68
2023/01/06 00:37:59;;;;;;;10.65;4.90;;;;;;;;;;4987600;28;20196;-68
2023/01/06 00:40:25;;;;;;;11.48;5.32;;;;;;;;;;4995982;28;20226;-68
2023/01/06 00:42:50;;;;;;;13.38;5.72;;;;;;;;;;4987519;28;20188;-68
2023/01/06 00:45:16;;;;;;;7.25;4.65;;;;;;;;;;4982789;28;20715;-68
2023/01/06 00:47:41;;;;;;;13.60;4.90;;;;;;;;;;4980993;28;20195;-68
2023/01/06 00:50:07;;;;;;;11.07;5.18;;;;;;;;;;4985220;28;20279;-68
2023/01/06 00:52:33;;;;;;;16.48;5.05;;;;;;;;;;4984533;28;20255;-67
2023/01/06 00:54:58;;;;;;;8.30;5.15;;;;;;;;;;4991617;28;20346;-67
2023/01/06 00:57:24;;;;;;;9.70;5.05;;;;;;;;;;4988155;28;20666;-67
2023/01/06 00:59:49;;;;;;;10.48;5.07;;;;;;;;;;4989711;28;20555;-67
2023/01/06 01:02:15;;;;;;;10.07;4.97;;;;;;;;;;4989784;28;20556;-67
2023/01/06 01:04:40;;;;;;;14.73;5.32;;;;;;;;;;4983025;28;20198;-67
2023/01/06 01:07:05;;;;;;;11.48;5.60;;;;;;;;;;4988777;28;20191;-68
2023/01/06 01:09:31;;;;;;;9.25;5.13;;;;;;;;;;4988414;28;20215;-67
2023/01/06 01:12:11;;;;;;;9.60;5.10;;;;;;;;;;4989817;28;20200;-68
2023/01/06 01:14:40;;;;;;;13.00;5.93;;;;;;;;;;4987118;28;20187;-67
2023/01/06 01:17:07;;;;;;;10.70;5.80;;;;;;;;;;4984196;28;20200;-67
2023/01/06 01:19:33;;;;;;;10.90;5.32;;;;;;;;;;4985982;28;20282;-67
2023/01/06 01:21:58;;;;;;;8.90;5.20;;;;;;;;;;4989277;28;20203;-72
2023/01/06 01:24:24;;;;;;;12.52;5.63;;;;;;;;;;4989292;28;20246;-67
2023/01/06 01:26:49;;;;;;;15.77;6.60;;;;;;;;;;4986735;28;20187;-67
2023/01/06 01:29:16;;;;;;;12.70;7.38;;;;;;;;;;4988078;28;20655;-67
2023/01/06 01:31:42;;;;;;;11.38;7.00;;;;;;;;;;4986141;28;20198;-68
2023/01/06 01:34:09;;;;;;;14.07;7.63;;;;;;;;;;4987227;28;20208;-68
2023/01/06 01:36:34;;;;;;;12.65;7.97;;;;;;;;;;4986052;28;20729;-67
2023/01/06 01:39:00;;;;;;;13.23;8.88;;;;;;;;;;4981171;28;20239;-68
2023/01/06 01:41:26;;;;;;;13.18;8.80;;;;;;;;;;4987200;28;20200;-67
2023/01/06 01:43:58;;;;;;;16.13;9.63;;;;;;;;;;4990125;28;20547;-68
2023/01/06 01:46:42;;;;;;;15.75;9.43;;;;;;;;;;4989431;28;20196;-68
2023/01/06 01:49:19;;;;;;;18.45;10.45;;;;;;;;;;4986755;28;20183;-68
2023/01/06 01:51:47;;;;;;;13.90;10.38;;;;;;;;;;4982830;28;20200;-68
2023/01/06 01:54:25;;;;;;;17.00;10.88;;;;;;;;;;4986858;28;20230;-68
2023/01/06 01:57:18;;;;;;;17.23;10.15;;;;;;;;;;4989996;28;20654;-68
2023/01/06 01:59:45;;;;;;;18.10;10.43;;;;;;;;;;4987426;28;20235;-68
2023/01/06 02:02:13;;;;;;;21.13;12.05;;;;;;;;;;4988737;28;20249;-68
2023/01/06 02:04:41;;;;;;;19.63;12.05;;;;;;;;;;4989085;28;20198;-68
2023/01/06 02:07:07;;;;;;;18.48;11.88;;;;;;;;;;4988486;28;20496;-68
2023/01/06 02:09:58;;;;;;;18.63;12.35;;;;;;;;;;4985193;28;20199;-68
2023/01/06 02:12:23;;;;;;;17.48;12.55;;;;;;;;;;4988116;28;20196;-68
2023/01/06 02:14:49;;;;;;;22.50;13.60;;;;;;;;;;4984717;28;20198;-68
2023/01/06 02:17:49;;;;;;;19.23;12.65;;;;;;;;;;4984845;28;20258;-68
2023/01/06 02:20:31;;;;;;;17.17;12.02;;;;;;;;;;4988556;28;20226;-68
2023/01/06 02:23:29;;;;;;;19.50;11.98;;;;;;;;;;4975643;28;20207;-68
2023/01/06 02:26:23;;;;;;;17.55;11.05;;;;;;;;;;4983324;28;20226;-68
2023/01/06 02:29:15;;;;;;;17.63;11.35;;;;;;;;;;4982528;28;20192;-68
2023/01/06 02:32:02;;;;;;;19.50;10.70;;;;;;;;;;4979674;28;20187;-67
2023/01/06 02:34:50;;;;;;;15.70;9.95;;;;;;;;;;4986780;28;20563;-68
2023/01/06 02:37:31;;;;;;;19.80;10.45;;;;;;;;;;4988019;28;20257;-68
2023/01/06 02:40:15;;;;;;;14.85;9.60;;;;;;;;;;4990458;28;20251;-67
2023/01/06 02:43:11;;;;;;;14.27;9.00;;;;;;;;;;4981064;28;20183;-68
2023/01/06 02:46:08;;;;;;;14.13;8.45;;;;;;;;;;4989697;28;20211;-68
2023/01/06 02:48:34;;;;;;;17.13;7.43;;;;;;;;;;4988567;28;20608;-68
2023/01/06 02:51:15;;;;;;;17.98;6.82;;;;;;;;;;4989119;28;20199;-68
2023/01/06 02:54:13;;;;;;;13.48;7.32;;;;;;;;;;4992583;28;20547;-67
2023/01/06 02:56:44;;;;;;;14.15;7.05;;;;;;;;;;4995776;28;20203;-67
2023/01/06 02:59:20;;;;;;;11.60;6.47;;;;;;;;;;4991297;28;20681;-67
2023/01/06 03:01:48;;;;;;;11.90;6.43;;;;;;;;;;4974978;28;20186;-67
2023/01/06 03:04:22;;;;;;;12.63;6.80;;;;;;;;;;4989206;28;20226;-67
2023/01/06 03:06:51;;;;;;;10.30;6.18;;;;;;;;;;4995664;28;20194;-67
2023/01/06 03:09:21;;;;;;;9.50;5.60;;;;;;;;;;5000565;28;20187;-67
2023/01/06 03:11:50;;;;;;;14.68;6.20;;;;;;;;;;4980485;28;20208;-67
2023/01/06 03:14:24;;;;;;;8.27;5.43;;;;;;;;;;4985936;28;20183;-67
2023/01/06 03:16:51;;;;;;;15.40;6.03;;;;;;;;;;4994847;28;20245;-67
2023/01/06 03:19:16;;;;;;;10.38;5.30;;;;;;;;;;4982065;28;20329;-66
2023/01/06 03:21:44;;;;;;;8.93;4.88;;;;;;;;;;4989546;28;20225;-67
2023/01/06 03:24:10;;;;;;;9.60;5.13;;;;;;;;;;4994330;28;20239;-67
2023/01/06 03:26:37;;;;;;;10.80;5.60;;;;;;;;;;4986130;28;20188;-67
2023/01/06 03:29:07;;;;;;;9.23;5.38;;;;;;;;;;4978001;28;20191;-68
2023/01/06 03:32:01;;;;;;;8.70;4.80;;;;;;;;;;4980607;28;20194;-67
2023/01/06 03:34:36;;;;;;;8.43;5.07;;;;;;;;;;4982160;28;20246;-66
2023/01/06 03:37:25;;;;;;;6.90;5.20;;;;;;;;;;4982735;28;20670;-67
2023/01/06 03:40:15;;;;;;;9.15;4.78;;;;;;;;;;4984638;28;20588;-67
2023/01/06 03:45:39;;;;;;;9.38;5.35;;;;;;;;;;4985978;28;20199;-67
2023/01/06 03:48:22;;;;;;;11.00;4.80;;;;;;;;;;4980694;28;20199;-67
2023/01/06 03:51:00;;;;;;;7.85;4.50;;;;;;;;;;4986518;28;20203;-67
2023/01/06 03:53:31;;;;;;;12.20;5.30;;;;;;;;;;4975133;28;20243;-67
2023/01/06 03:56:13;;;;;;;12.13;5.57;;;;;;;;;;4988905;28;20545;-67
2023/01/06 03:58:39;;;;;;;8.20;5.07;;;;;;;;;;4997101;28;20554;-67
2023/01/06 04:01:07;;;;;;;9.88;5.40;;;;;;;;;;4981889;28;20235;-67
2023/01/06 04:03:33;;;;;;;6.78;4.80;;;;;;;;;;4987371;28;20191;-67
2023/01/06 04:05:58;;;;;;;8.70;4.90;;;;;;;;;;4989414;28;20667;-67
2023/01/06 04:08:24;;;;;;;10.10;4.40;;;;;;;;;;4981864;28;20366;-67
2023/01/06 04:10:49;;;;;;;9.13;4.30;;;;;;;;;;4990380;28;20265;-67
2023/01/06 04:13:15;;;;;;;5.18;3.33;;;;;;;;;;4990960;28;20202;-67
2023/01/06 04:15:41;;;;;;;7.30;3.47;;;;;;;;;;4989999;28;20663;-67
2023/01/06 04:18:06;;;;;;;6.60;3.63;;;;;;;;;;4988673;28;20199;-67
2023/01/06 04:20:32;;;;;;;8.75;3.17;;;;;;;;;;4995143;28;20665;-67
2023/01/06 04:22:57;;;;;;;7.43;2.67;;;;;;;;;;4988051;28;20230;-66
2023/01/06 04:25:23;;;;;;;9.60;2.65;;;;;;;;;;4989778;28;20235;-67
2023/01/06 04:27:49;;;;;;;7.00;2.33;;;;;;;;;;4990570;28;20195;-67
2023/01/06 04:30:15;;;;;;;4.95;2.90;;;;;;;;;;4987578;28;20682;-67
2023/01/06 04:32:40;;;;;;;5.50;2.83;;;;;;;;;;4989479;28;20632;-67
2023/01/06 04:35:06;;;;;;;6.28;2.30;;;;;;;;;;4989781;28;20199;-67
2023/01/06 04:37:33;;;;;;;6.35;3.00;;;;;;;;;;4981505;28;20299;-67
2023/01/06 04:39:58;;;;;;;9.70;3.28;;;;;;;;;;4989440;28;20295;-66
2023/01/06 04:42:24;;;;;;;4.72;3.25;;;;;;;;;;4986304;28;20691;-66
2023/01/06 04:44:49;;;;;;;6.85;3.22;;;;;;;;;;4988094;28;20206;-67
2023/01/06 04:47:14;;;;;;;5.13;3.03;;;;;;;;;;4989930;28;20718;-67
2023/01/06 04:49:40;;;;;;;4.85;3.55;;;;;;;;;;4985685;28;20199;-67
2023/01/06 04:52:07;;;;;;;5.32;2.40;;;;;;;;;;4988615;28;20203;-67
2023/01/06 04:54:33;;;;;;;6.10;2.70;;;;;;;;;;4988781;28;20184;-67
2023/01/06 04:56:58;;;;;;;5.85;2.38;;;;;;;;;;4989938;28;20198;-68
2023/01/06 04:59:24;;;;;;;5.03;2.30;;;;;;;;;;4990028;28;20203;-67
2023/01/06 05:01:49;;;;;;;2.70;2.15;;;;;;;;;;4983254;28;20192;-67
2023/01/06 05:04:14;;;;;;;10.02;1.88;;;;;;;;;;4981488;28;20195;-67
2023/01/06 05:06:40;;;;;;;4.97;1.90;;;;;;;;;;4986726;28;20203;-67
2023/01/06 05:09:06;;;;;;;4.85;1.65;;;;;;;;;;4987556;28;20665;-67
2023/01/06 05:11:31;;;;;;;4.43;1.60;;;;;;;;;;4988319;28;20301;-67
2023/01/06 05:13:57;;;;;;;5.30;1.42;;;;;;;;;;4986718;28;20184;-66
2023/01/06 05:16:26;;;;;;;3.30;1.63;;;;;;;;;;4987956;28;20192;-67
2023/01/06 05:18:52;;;;;;;3.63;1.50;;;;;;;;;;4992743;28;20205;-66
2023/01/06 05:21:17;;;;;;;4.28;1.52;;;;;;;;;;4991071;28;20196;-66
2023/01/06 05:23:43;;;;;;;4.05;1.35;;;;;;;;;;4986476;28;20583;-67
2023/01/06 05:26:16;;;;;;;4.13;1.50;;;;;;;;;;4990219;28;20572;-67
2023/01/06 05:28:41;;;;;;;5.18;1.45;;;;;;;;;;4991862;28;20210;-67
2023/01/06 05:31:09;;;;;;;5.00;1.52;;;;;;;;;;4980371;28;20195;-66
2023/01/06 05:33:34;;;;;;;8.23;1.40;;;;;;;;;;4985247;28;20245;-66
2023/01/06 05:36:02;;;;;;;4.00;1.40;;;;;;;;;;4989638;28;20191;-67
2023/01/06 05:38:28;;;;;;;8.88;1.67;;;;;;;;;;5000304;28;20259;-66
2023/01/06 05:40:53;;;;;;;3.63;1.20;;;;;;;;;;4995695;28;20215;-66
2023/01/06 05:43:22;;;;;;;2.88;0.93;;;;;;;;;;4996790;28;20187;-66
2023/01/06 05:45:48;;;;;;;4.70;1.35;;;;;;;;;;4997275;28;20214;-66
2023/01/06 05:48:13;;;;;;;4.38;1.20;;;;;;;;;;4997254;28;20285;-66
2023/01/06 05:50:39;;;;;;;6.97;1.58;;;;;;;;;;4996795;28;20273;-66
2023/01/06 05:53:05;;;;;;;5.70;1.60;;;;;;;;;;4999236;28;20192;-66
2023/01/06 05:55:30;;;;;;;3.78;1.38;;;;;;;;;;4993922;28;20423;-66
2023/01/06 05:57:55;;;;;;;3.22;1.13;;;;;;;;;;4985619;28;20191;-66
2023/01/06 06:00:21;;;;;;;6.45;1.70;;;;;;;;;;4988204;28;20227;-68
2023/01/06 06:02:46;;;;;;;6.13;1.35;;;;;;;;;;4986318;28;20203;-67
2023/01/06 06:05:12;;;;;;;3.70;1.50;;;;;;;;;;4982690;28;20640;-66
2023/01/06 06:07:37;;;;;;;4.45;1.45;;;;;;;;;;4981689;28;20195;-66
2023/01/06 06:10:04;;;;;;;6.05;1.35;;;;;;;;;;4991042;28;20202;-67
2023/01/06 06:12:29;;;;;;;6.18;1.10;;;;;;;;;;4971092;28;20191;-67
2023/01/06 06:14:55;;;;;;;5.18;1.40;;;;;;;;;;4989151;28;20194;-66
2023/01/06 06:17:21;;;;;;;3.10;1.13;;;;;;;;;;4996697;28;20631;-66
2023/01/06 06:19:46;;;;;;;4.57;1.08;;;;;;;;;;4981997;28;20211;-66
2023/01/06 06:22:11;;;;;;;4.40;1.48;;;;;;;;;;4989157;28;20205;-67
2023/01/06 06:24:37;;;;;;;3.72;1.20;;;;;;;;;;5000389;28;20304;-67
2023/01/06 06:27:02;;;;;;;4.80;1.60;;;;;;;;;;4995996;28;20753;-66
2023/01/06 06:29:28;;;;;;;2.83;1.20;;;;;;;;;;4990414;28;20195;-67
2023/01/06 06:31:53;;;;;;;1.90;1.00;;;;;;;;;;4991145;28;20204;-66
2023/01/06 06:34:18;;;;;;;5.40;1.42;;;;;;;;;;4999954;28;20192;-67
2023/01/06 06:36:44;;;;;;;5.13;1.88;;;;;;;;;;5004745;28;20578;-66
2023/01/06 06:39:09;;;;;;;4.35;1.67;;;;;;;;;;5000228;28;20224;-66
2023/01/06 06:41:34;;;;;;;1.55;1.02;;;;;;;;;;4990573;28;20175;-65
2023/01/06 06:44:00;;;;;;;4.88;1.35;;;;;;;;;;4993241;28;20650;-66
2023/01/06 06:46:25;;;;;;;4.70;1.55;;;;;;;;;;4999227;28;20713;-66
2023/01/06 06:48:51;;;;;;;3.67;1.38;;;;;;;;;;4999120;28;20692;-66
2023/01/06 06:51:19;;;;;;;5.72;1.80;;;;;;;;;;4987020;28;20195;-66
2023/01/06 06:53:45;;;;;;;2.35;1.50;;;;;;;;;;4985982;28;20198;-66
2023/01/06 06:56:12;;;;;;;3.90;1.40;;;;;;;;;;4980132;28;20550;-66
2023/01/06 06:58:38;;;;;;;3.25;1.48;;;;;;;;;;4978462;28;20609;-66
2023/01/06 07:01:09;;;;;;;3.97;1.85;;;;;;;;;;4985085;28;20675;-66
2023/01/06 07:03:35;;;;;;;3.08;1.80;;;;;;;;;;4993495;28;20188;-66
2023/01/06 07:06:02;;;;;;;2.05;1.50;;;;;;;;;;4977054;28;20184;-67
2023/01/06 07:08:27;;;;;;;4.45;1.60;;;;;;;;;;4977658;28;20558;-66
2023/01/06 07:10:53;;;;;;;4.00;1.60;;;;;;;;;;4984073;28;20191;-67
2023/01/06 07:13:18;;;;;;;6.18;1.90;;;;;;;;;;4981458;28;20199;-67
2023/01/06 07:15:44;;;;;;;2.60;1.52;;;;;;;;;;4982172;28;20825;-66
2023/01/06 07:18:09;;;;;;;5.07;2.35;;;;;;;;;;4980978;28;20207;-67
2023/01/06 07:20:36;;;;;;;4.65;1.90;;;;;;;;;;4981670;28;20219;-67
2023/01/06 07:23:02;;;;;;;3.47;2.03;;;;;;;;;;4985364;28;20191;-68
2023/01/06 07:25:28;;;;;;;4.35;2.13;;;;;;;;;;4990584;28;20670;-66
2023/01/06 07:27:55;;;;;;;6.68;2.25;;;;;;;;;;4998541;28;20273;-67
2023/01/06 07:30:22;;;;;;;4.15;2.22;;;;;;;;;;4988166;28;20207;-66
2023/01/06 07:32:48;;;;;;;3.15;2.17;;;;;;;;;;4994334;28;20710;-67
2023/01/06 07:35:13;;;;;;;3.65;2.30;;;;;;;;;;4991858;28;20333;-68
2023/01/06 07:37:38;;;;;;;4.70;2.40;;;;;;;;;;4994293;28;20701;-68
2023/01/06 07:40:04;;;;;;;4.82;2.92;;;;;;;;;;4986827;28;20223;-67
2023/01/06 07:42:30;;;;;;;10.75;3.42;;;;;;;;;;4991592;28;20194;-68
2023/01/06 07:44:55;;;;;;;4.93;2.70;;;;;;;;;;4997275;28;20187;-68
2023/01/06 07:47:21;;;;;;;3.33;2.67;;;;;;;;;;4985873;28;20235;-68
2023/01/06 07:49:46;;;;;;;3.63;2.75;;;;;;;;;;4993762;28;20202;-69
2023/01/06 07:52:11;;;;;;;6.93;2.90;;;;;;;;;;4997326;28;20186;-68
2023/01/06 07:54:37;;;;;;;3.38;2.45;;;;;;;;;;4997304;28;20487;-68
2023/01/06 07:57:02;;;;;;;5.93;2.75;;;;;;;;;;4998770;28;20185;-69
2023/01/06 07:59:28;;;;;;;5.70;2.80;;;;;;;;;;4995900;28;20207;-68
2023/01/06 08:01:53;;;;;;;7.50;3.08;;;;;;;;;;4984298;28;20218;-69
2023/01/06 08:04:19;;;;;;;6.72;2.80;;;;;;;;;;4996842;28;20222;-69
2023/01/06 08:06:45;;;;;;;5.43;2.92;;;;;;;;;;4980831;28;20224;-69
2023/01/06 08:09:10;;;;;;;3.72;3.30;;;;;;;;;;4986301;28;20183;-70
2023/01/06 08:11:35;;;;;;;5.78;3.53;;;;;;;;;;4978669;28;20200;-70
2023/01/06 08:14:01;;;;;;;5.10;3.80;;;;;;;;;;4996117;28;20282;-71
2023/01/06 08:16:26;;;;;;;6.63;3.58;;;;;;;;;;4992590;28;20599;-71
2023/01/06 08:18:52;;;;;;;5.53;3.88;;;;;;;;;;5003556;28;20206;-71
2023/01/06 08:21:17;;;;;;;5.20;4.55;;;;;;;;;;4982788;28;20199;-71
2023/01/06 08:23:43;;;;;;;6.55;4.47;;;;;;;;;;4291151;28;10000763;-70
2023/01/06 08:26:14;;;;;;;7.43;5.00;;;;;;;;;;4968349;28;20205;-70
2023/01/06 08:28:41;;;;;;;6.25;5.07;;;;;;;;;;4987104;28;20279;-69
2023/01/06 08:31:09;;;;;;;10.07;5.05;;;;;;;;;;4989725;28;20191;-69
2023/01/06 08:33:34;;;;;;;6.45;4.50;;;;;;;;;;4974234;28;20334;-70
2023/01/06 08:36:02;;;;;;;5.60;4.82;;;;;;;;;;4991831;28;20463;-69
2023/01/06 08:38:29;;;;;;;7.43;5.10;;;;;;;;;;4996871;28;20206;-69
2023/01/06 08:40:56;;;;;;;8.43;5.18;;;;;;;;;;4984838;28;20555;-70
2023/01/06 08:43:22;;;;;;;6.53;4.60;;;;;;;;;;4994613;28;20221;-68
2023/01/06 08:45:48;;;;;;;7.40;4.65;;;;;;;;;;4986136;28;20612;-69
2023/01/06 08:48:13;;;;;;;9.15;5.13;;;;;;;;;;4994232;28;20187;-69
2023/01/06 08:50:39;;;;;;;6.35;5.00;;;;;;;;;;4980911;28;20184;-68
2023/01/06 08:53:05;;;;;;;5.78;4.60;;;;;;;;;;4980559;28;20252;-69
2023/01/06 08:55:31;;;;;;;8.95;5.68;;;;;;;;;;4989310;28;20645;-69
2023/01/06 08:57:57;;;;;;;6.20;5.55;;;;;;;;;;4987845;28;20229;-69
2023/01/06 09:00:22;;;;;;;5.88;5.13;;;;;;;;;;4983722;28;20699;-69
2023/01/06 09:02:48;;;;;;;5.88;5.28;;;;;;;;;;4993632;28;20608;-69
2023/01/06 09:05:13;;;;;;;7.20;5.88;;;;;;;;;;4983086;28;20683;-69
2023/01/06 09:07:38;;;;;;;6.30;5.38;;;;;;;;;;4989713;28;20208;-68
2023/01/06 09:10:04;;;;;;;6.40;5.13;;;;;;;;;;4983264;28;20187;-68
2023/01/06 09:12:30;;;;;;;7.78;5.88;;;;;;;;;;4996455;28;20713;-69
2023/01/06 09:14:55;;;;;;;9.05;5.50;;;;;;;;;;4983488;28;20626;-68
2023/01/06 09:17:20;;;;;;;5.43;4.93;;;;;;;;;;4986763;28;20215;-68
2023/01/06 09:19:46;;;;;;;7.50;4.53;;;;;;;;;;4982679;28;20230;-69
2023/01/06 09:22:11;;;;;;;5.20;4.70;;;;;;;;;;4979716;28;20195;-69
2023/01/06 09:24:37;;;;;;;5.43;4.68;;;;;;;;;;4998083;28;20578;-69
2023/01/06 09:27:02;;;;;;;6.50;4.93;;;;;;;;;;4997915;28;20206;-68
2023/01/06 09:29:27;;;;;;;5.47;4.45;;;;;;;;;;5002589;28;20184;-68
2023/01/06 09:31:53;;;;;;;7.35;4.70;;;;;;;;;;4995242;28;20871;-68
2023/01/06 09:34:18;;;;;;;6.47;3.55;;;;;;;;;;4993726;28;20201;-68
2023/01/06 09:36:44;;;;;;;6.28;3.60;;;;;;;;;;4995065;28;20196;-68
2023/01/06 09:39:09;;;;;;;5.10;2.83;;;;;;;;;;4997037;28;20262;-68
2023/01/06 09:41:44;;;;;;;6.22;2.80;;;;;;;;;;4991159;28;20342;-68
2023/01/06 09:44:32;;;;;;;4.18;2.10;;;;;;;;;;4992134;28;20201;-68
2023/01/06 09:47:00;;;;;;;6.25;2.28;;;;;;;;;;4993432;28;20191;-68
2023/01/06 09:49:42;;;;;;;5.70;1.80;;;;;;;;;;4989604;28;20184;-69
2023/01/06 09:52:27;;;;;;;7.72;2.13;;;;;;;;;;4980448;28;20183;-68
2023/01/06 09:55:01;;;;;;;9.93;2.40;;;;;;;;;;4987987;28;20273;-68
2023/01/06 09:57:46;;;;;;;5.05;1.80;;;;;;;;;;4988110;28;20206;-69
2023/01/06 10:00:21;;;;;;;8.65;1.65;;;;;;;;;;4985371;28;20748;-68
2023/01/06 10:02:47;;;;;;;7.65;1.83;;;;;;;;;;4987394;28;20237;-68
2023/01/06 10:05:21;;;;;;;8.23;1.20;;;;;;;;;;4986831;28;20211;-68
2023/01/06 10:08:17;;;;;;;8.45;1.23;;;;;;;;;;4981803;28;20187;-69
2023/01/06 10:11:05;;;;;;;7.82;1.50;;;;;;;;;;4981798;28;20199;-68
2023/01/06 10:13:42;;;;;;;7.70;1.20;;;;;;;;;;4973107;28;20615;-67
2023/01/06 10:16:19;;;;;;;8.55;1.40;;;;;;;;;;4990403;28;20658;-67
2023/01/06 10:19:02;;;;;;;6.15;1.52;;;;;;;;;;4992675;28;20290;-67
2023/01/06 10:21:58;;;;;;;7.63;1.38;;;;;;;;;;4987087;28;20206;-67
2023/01/06 10:24:37;;;;;;;6.10;1.15;;;;;;;;;;4982318;28;20714;-67
2023/01/06 10:27:31;;;;;;;9.85;1.10;;;;;;;;;;4983001;28;20192;-68
2023/01/06 10:29:59;;;;;;;9.15;1.23;;;;;;;;;;4999837;28;20191;-67
2023/01/06 10:32:30;;;;;;;12.18;1.58;;;;;;;;;;4987455;28;20253;-67
2023/01/06 10:34:58;;;;;;;9.05;1.20;;;;;;;;;;4984001;28;20192;-67
2023/01/06 10:37:38;;;;;;;6.63;1.50;;;;;;;;;;4976757;28;20860;-67
2023/01/06 10:40:20;;;;;;;6.05;1.13;;;;;;;;;;4989569;28;20235;-67
2023/01/06 10:42:54;;;;;;;4.97;1.17;;;;;;;;;;4981058;28;20198;-67
2023/01/06 10:45:38;;;;;;;9.68;1.20;;;;;;;;;;4987836;28;20191;-67
2023/01/06 10:48:09;;;;;;;6.07;1.58;;;;;;;;;;4983009;28;20195;-67
2023/01/06 10:50:34;;;;;;;4.80;0.88;;;;;;;;;;4982857;28;20211;-68
2023/01/06 10:53:00;;;;;;;6.35;1.80;;;;;;;;;;4985309;28;20187;-67
2023/01/06 10:55:32;;;;;;;7.70;1.17;;;;;;;;;;4986034;28;20339;-68
2023/01/06 10:58:06;;;;;;;7.57;1.23;;;;;;;;;;4985072;28;20301;-68
2023/01/06 11:00:31;;;;;;;5.15;1.20;;;;;;;;;;4981863;28;20227;-68
2023/01/06 11:03:05;;;;;;;6.80;1.20;;;;;;;;;;4987700;28;20206;-67
2023/01/06 11:05:33;;;;;;;4.50;1.00;;;;;;;;;;4981346;28;20311;-68
2023/01/06 11:08:18;;;;;;;9.32;1.02;;;;;;;;;;4985016;28;21110;-68
2023/01/06 11:10:51;;;;;;;6.80;1.08;;;;;;;;;;4986528;28;20202;-67
2023/01/06 11:13:24;;;;;;;9.07;1.10;;;;;;;;;;4985051;28;20243;-67
2023/01/06 11:15:50;;;;;;;7.93;1.08;;;;;;;;;;4983211;28;20686;-67
2023/01/06 11:18:38;;;;;;;4.97;0.73;;;;;;;;;;4980369;28;20187;-67
2023/01/06 11:21:09;;;;;;;9.48;1.10;;;;;;;;;;4983464;28;20195;-67
2023/01/06 11:23:36;;;;;;;6.22;0.80;;;;;;;;;;4983649;28;20227;-67
2023/01/06 11:26:11;;;;;;;8.13;0.90;;;;;;;;;;4989906;28;20195;-67
2023/01/06 11:28:37;;;;;;;5.88;1.25;;;;;;;;;;4982176;28;20310;-67
2023/01/06 11:31:12;;;;;;;5.10;0.80;;;;;;;;;;4978309;28;20191;-67
2023/01/06 11:33:47;;;;;;;10.57;1.20;;;;;;;;;;4989036;28;20733;-67
2023/01/06 11:36:15;;;;;;;6.03;0.98;;;;;;;;;;4985614;28;20516;-66
2023/01/06 11:39:02;;;;;;;8.27;1.40;;;;;;;;;;4985152;28;20210;-67
2023/01/06 11:41:35;;;;;;;3.13;0.75;;;;;;;;;;4991198;28;20204;-68
2023/01/06 11:44:06;;;;;;;8.00;0.95;;;;;;;;;;4994485;28;20183;-67
2023/01/06 11:46:32;;;;;;;7.63;0.93;;;;;;;;;;4986509;28;20186;-67
2023/01/06 11:49:05;;;;;;;7.75;1.20;;;;;;;;;;4979164;28;20187;-67
2023/01/06 11:51:42;;;;;;;4.72;0.85;;;;;;;;;;4978934;28;20342;-68
2023/01/06 11:54:26;;;;;;;6.38;1.17;;;;;;;;;;4985188;28;20639;-67
2023/01/06 11:57:11;;;;;;;5.13;1.23;;;;;;;;;;4992776;28;20278;-67
2023/01/06 11:59:56;;;;;;;6.95;1.10;;;;;;;;;;4981095;28;20226;-67
2023/01/06 12:02:31;;;;;;;5.05;1.10;;;;;;;;;;4990942;28;20565;-67
2023/01/06 12:04:59;;;;;;;5.68;1.23;;;;;;;;;;4985258;28;20190;-67
2023/01/06 12:07:41;;;;;;;10.10;1.70;;;;;;;;;;4988372;28;20187;-67
2023/01/06 12:10:17;;;;;;;5.68;1.40;;;;;;;;;;4990064;28;20241;-67
2023/01/06 12:12:42;;;;;;;7.93;1.88;;;;;;;;;;4992138;28;20592;-67
2023/01/06 12:15:13;;;;;;;6.18;1.77;;;;;;;;;;4994273;28;20277;-67
2023/01/06 12:17:53;;;;;;;8.75;2.30;;;;;;;;;;4991388;28;20539;-67
2023/01/06 12:20:27;;;;;;;5.93;2.25;;;;;;;;;;5000672;28;20276;-67
2023/01/06 12:23:01;;;;;;;7.93;2.20;;;;;;;;;;4991810;28;20231;-67
2023/01/06 12:25:41;;;;;;;6.90;2.30;;;;;;;;;;4992345;28;20243;-67
2023/01/06 12:28:32;;;;;;;7.75;2.35;;;;;;;;;;4983311;28;20728;-67
2023/01/06 12:31:14;;;;;;;8.65;2.65;;;;;;;;;;4989879;28;20550;-68
2023/01/06 12:34:04;;;;;;;12.38;3.35;;;;;;;;;;4996219;28;20552;-67
2023/01/06 12:36:54;;;;;;;8.57;2.63;;;;;;;;;;4976185;28;20213;-68
2023/01/06 12:39:29;;;;;;;9.00;2.67;;;;;;;;;;4980349;28;20211;-67
2023/01/06 12:42:06;;;;;;;6.30;2.17;;;;;;;;;;4986242;28;20210;-67
2023/01/06 12:44:42;;;;;;;6.55;1.77;;;;;;;;;;4991172;28;20585;-67
2023/01/06 12:47:33;;;;;;;7.18;1.80;;;;;;;;;;4989460;28;20411;-67
2023/01/06 12:50:28;;;;;;;8.05;2.05;;;;;;;;;;4986219;28;20659;-67
2023/01/06 12:53:00;;;;;;;6.60;1.95;;;;;;;;;;4986109;28;20202;-67
2023/01/06 12:56:03;;;;;;;7.93;1.52;;;;;;;;;;4996004;28;20204;-67
2023/01/06 12:58:38;;;;;;;10.20;1.58;;;;;;;;;;4987186;28;20218;-68
2023/01/06 13:01:04;;;;;;;4.72;1.33;;;;;;;;;;4980793;28;20298;-67
2023/01/06 13:04:17;;;;;;;6.25;1.40;;;;;;;;;;4982556;28;20342;-67
2023/01/06 13:07:05;;;;;;;8.07;1.35;;;;;;;;;;4966289;28;20268;-67
2023/01/06 13:09:53;;;;;;;7.88;1.75;;;;;;;;;;4993797;28;20199;-67
2023/01/06 13:12:45;;;;;;;7.53;1.15;;;;;;;;;;4994363;28;20726;-67
2023/01/06 13:15:13;;;;;;;4.60;1.13;;;;;;;;;;4985095;28;20694;-67
2023/01/06 13:17:43;;;;;;;6.68;1.00;;;;;;;;;;4980808;28;20278;-67
2023/01/06 13:20:22;;;;;;;7.57;1.23;;;;;;;;;;4979944;28;20222;-67
2023/01/06 13:23:10;;;;;;;6.80;1.42;;;;;;;;;;4987822;28;20647;-67
2023/01/06 13:25:45;;;;;;;6.40;1.00;;;;;;;;;;4986663;28;20291;-67
2023/01/06 13:28:42;;;;;;;8.70;1.38;;;;;;;;;;4984019;28;20230;-68
2023/01/06 13:31:26;;;;;;;7.22;1.10;;;;;;;;;;4984277;28;20370;-67
2023/01/06 13:34:22;;;;;;;6.80;1.15;;;;;;;;;;4980805;28;20211;-67
2023/01/06 13:37:12;;;;;;;5.85;1.33;;;;;;;;;;4984958;28;20333;-67
2023/01/06 13:40:11;;;;;;;10.85;1.70;;;;;;;;;;4985370;28;20287;-67
2023/01/06 13:42:40;;;;;;;5.93;1.20;;;;;;;;;;4989561;28;20215;-67
2023/01/06 13:45:22;;;;;;;6.72;1.08;;;;;;;;;;4993582;28;20230;-67
2023/01/06 13:47:49;;;;;;;5.15;1.30;;;;;;;;;;4970602;28;20196;-67
2023/01/06 13:50:18;;;;;;;6.45;1.30;;;;;;;;;;4984692;28;20477;-67
2023/01/06 13:52:44;;;;;;;5.28;1.40;;;;;;;;;;4984074;28;20596;-67
2023/01/06 13:55:27;;;;;;;12.85;1.90;;;;;;;;;;4984331;28;20196;-67
2023/01/06 13:57:54;;;;;;;7.13;1.45;;;;;;;;;;4993778;28;20694;-68
2023/01/06 14:00:29;;;;;;;14.70;1.52;;;;;;;;;;4995492;28;20294;-68
2023/01/06 14:02:54;;;;;;;6.03;1.20;;;;;;;;;;4985041;28;20222;-68
2023/01/06 14:05:22;;;;;;;24.38;1.90;;;;;;;;;;4989214;28;20274;-68
2023/01/06 14:07:58;;;;;;;5.18;1.25;;;;;;;;;;4989205;28;20191;-67
2023/01/06 14:10:41;;;;;;;5.28;1.20;;;;;;;;;;4989014;28;20695;-69
2023/01/06 14:13:33;;;;;;;6.18;0.98;;;;;;;;;;4984368;28;20195;-68
2023/01/06 14:16:10;;;;;;;8.15;1.27;;;;;;;;;;4977213;28;20191;-67
2023/01/06 14:18:38;;;;;;;7.50;1.45;;;;;;;;;;4994675;28;20186;-68
2023/01/06 14:21:11;;;;;;;7.72;1.10;;;;;;;;;;4985464;28;20195;-68
2023/01/06 14:23:37;;;;;;;8.70;1.10;;;;;;;;;;4983896;28;20236;-68
2023/01/06 14:26:03;;;;;;;3.83;0.90;;;;;;;;;;4983265;28;20196;-68
2023/01/06 14:28:31;;;;;;;4.75;1.38;;;;;;;;;;4987965;28;20285;-68
2023/01/06 14:31:29;;;;;;;7.38;1.10;;;;;;;;;;4983378;28;20261;-68
2023/01/06 14:34:01;;;;;;;9.27;1.00;;;;;;;;;;4976754;28;20221;-68
2023/01/06 14:36:31;;;;;;;6.22;1.25;;;;;;;;;;4981332;28;20204;-68
2023/01/06 14:39:03;;;;;;;9.48;1.02;;;;;;;;;;4982957;28;20266;-68
2023/01/06 14:41:35;;;;;;;5.68;1.05;;;;;;;;;;4981264;28;20202;-67
2023/01/06 14:44:16;;;;;;;6.25;1.10;;;;;;;;;;4986365;28;20199;-68
2023/01/06 14:46:51;;;;;;;5.20;1.17;;;;;;;;;;4982773;28;20196;-67
2023/01/06 14:49:22;;;;;;;3.75;1.00;;;;;;;;;;4981841;28;20222;-68
2023/01/06 14:51:51;;;;;;;6.72;1.45;;;;;;;;;;4977471;28;20226;-68
2023/01/06 14:54:24;;;;;;;7.22;1.88;;;;;;;;;;4988707;28;20629;-68
2023/01/06 14:56:55;;;;;;;11.75;1.38;;;;;;;;;;4984445;28;20199;-68
2023/01/06 14:59:21;;;;;;;7.50;1.20;;;;;;;;;;4990869;28;20219;-68
2023/01/06 15:01:59;;;;;;;4.00;1.30;;;;;;;;;;4979761;28;20650;-68
2023/01/06 15:04:33;;;;;;;6.68;2.05;;;;;;;;;;4983992;28;20227;-68
2023/01/06 15:07:19;;;;;;;6.78;1.40;;;;;;;;;;4983793;28;20662;-68